Time;durP1;ratioP1;P1;durP2;ratioP2;P2;SDS_P1;SDS_P2;PMS_P1;PMS_P2;Temp;Humidity;BMP_temperature;BMP_pressure;BME280_temperature;BME280_humidity;BME280_pressure;Samples;Min_cycle;Max_cycle;Signal;HPM_P1;HPM_P2
2022/11/02 00:00:19;;;;;;;;;;;12.00;99.90;;;;;;5084592;28;19986;-74
2022/11/02 00:02:46;;;;;;;;;;;12.00;99.90;;;;;;5079613;28;19930;-74
2022/11/02 00:05:14;;;;;;;;;;;12.00;99.90;;;;;;5085352;28;20023;-74
2022/11/02 00:07:41;;;;;;;;;;;12.00;99.90;;;;;;5072179;28;20311;-74
2022/11/02 00:10:11;;;;;;;;;;;12.00;99.90;;;;;;5082556;28;20542;-74
2022/11/02 00:12:38;;;;;;;;;;;12.00;99.90;;;;;;5085524;28;19924;-74
2022/11/02 00:15:05;;;;;;;;;;;11.90;99.90;;;;;;5084250;28;20314;-74
2022/11/02 00:17:33;;;;;;;;;;;11.90;99.90;;;;;;5081152;28;20104;-74
2022/11/02 00:20:00;;;;;;;;;;;11.90;99.90;;;;;;5082591;28;20420;-74
2022/11/02 00:22:27;;;;;;;;;;;11.80;99.90;;;;;;5079439;28;19967;-74
2022/11/02 00:24:53;;;;;;;;;;;11.80;99.90;;;;;;5079545;28;20021;-74
2022/11/02 00:27:22;;;;;;;;;;;11.80;99.90;;;;;;5085237;28;19964;-74
2022/11/02 00:29:49;;;;;;;;;;;11.80;99.90;;;;;;5079087;28;19928;-74
2022/11/02 00:32:16;;;;;;;;;;;11.70;99.90;;;;;;5082464;28;19963;-74
2022/11/02 00:34:43;;;;;;;;;;;11.70;99.90;;;;;;5101158;28;20429;-74
2022/11/02 00:37:09;;;;;;;;;;;11.70;99.90;;;;;;5085982;28;19931;-74
2022/11/02 00:39:36;;;;;;;;;;;11.70;99.90;;;;;;5083696;28;20377;-74
2022/11/02 00:42:04;;;;;;;;;;;11.70;99.90;;;;;;5077322;28;19942;-74
2022/11/02 00:44:33;;;;;;;;;;;11.70;99.90;;;;;;5092211;28;19925;-74
2022/11/02 00:47:00;;;;;;;;;;;11.60;99.90;;;;;;5075231;28;20320;-74
2022/11/02 00:49:27;;;;;;;;;;;11.60;99.90;;;;;;5081698;28;19924;-74
2022/11/02 00:51:53;;;;;;;;;;;11.60;99.90;;;;;;5076717;28;20102;-74
2022/11/02 00:54:21;;;;;;;;;;;11.60;99.90;;;;;;5079308;28;20005;-74
2022/11/02 00:56:49;;;;;;;;;;;11.70;99.90;;;;;;5097182;28;20429;-74
2022/11/02 00:59:16;;;;;;;;;;;11.60;99.90;;;;;;5077760;28;20400;-74
2022/11/02 01:01:46;;;;;;;;;;;11.60;99.90;;;;;;5085647;28;19963;-74
2022/11/02 01:04:13;;;;;;;;;;;11.60;99.90;;;;;;5086253;28;19935;-74
2022/11/02 01:06:40;;;;;;;;;;;11.60;99.90;;;;;;5079089;28;20013;-74
2022/11/02 01:09:06;;;;;;;;;;;11.50;99.90;;;;;;5094650;28;19967;-73
2022/11/02 01:11:33;;;;;;;;;;;11.60;99.90;;;;;;5078954;28;20448;-74
2022/11/02 01:14:00;;;;;;;;;;;11.60;99.90;;;;;;5087138;28;19928;-74
2022/11/02 01:16:27;;;;;;;;;;;11.50;99.90;;;;;;5071795;28;19947;-74
2022/11/02 01:18:57;;;;;;;;;;;11.50;99.90;;;;;;5083091;28;20286;-74
2022/11/02 01:21:24;;;;;;;;;;;11.60;99.90;;;;;;5081543;28;19932;-74
2022/11/02 01:23:51;;;;;;;;;;;11.50;99.90;;;;;;5082506;28;19924;-74
2022/11/02 01:26:18;;;;;;;;;;;11.50;99.90;;;;;;5077339;28;19956;-74
2022/11/02 01:28:44;;;;;;;;;;;11.50;99.90;;;;;;5095079;28;19977;-74
2022/11/02 01:31:13;;;;;;;;;;;11.50;99.90;;;;;;5074041;28;19939;-74
2022/11/02 01:33:42;;;;;;;;;;;11.40;99.90;;;;;;5078942;28;20062;-74
2022/11/02 01:36:12;;;;;;;;;;;11.40;99.90;;;;;;5077124;28;20007;-74
2022/11/02 01:38:38;;;;;;;;;;;11.40;99.90;;;;;;5081720;28;20019;-74
2022/11/02 01:41:05;;;;;;;;;;;11.40;99.90;;;;;;5075287;28;19932;-74
2022/11/02 01:43:34;;;;;;;;;;;11.30;99.90;;;;;;5085615;28;20040;-74
2022/11/02 01:46:03;;;;;;;;;;;11.30;99.90;;;;;;5079003;28;19974;-74
2022/11/02 01:48:31;;;;;;;;;;;11.30;99.90;;;;;;5079863;28;19985;-74
2022/11/02 01:51:00;;;;;;;;;;;11.30;99.90;;;;;;5077282;28;19924;-74
2022/11/02 01:53:29;;;;;;;;;;;11.30;99.90;;;;;;5072762;28;19935;-74
2022/11/02 01:55:56;;;;;;;;;;;11.20;99.90;;;;;;5076581;28;20023;-74
2022/11/02 01:58:23;;;;;;;;;;;11.20;99.90;;;;;;5083714;28;19932;-74
2022/11/02 02:00:50;;;;;;;;;;;11.20;99.90;;;;;;5079576;28;19924;-74
2022/11/02 02:03:20;;;;;;;;;;;11.20;99.90;;;;;;5076875;28;19924;-74
2022/11/02 02:05:49;;;;;;;;;;;11.20;99.90;;;;;;5079139;28;19932;-74
2022/11/02 02:08:20;;;;;;;;;;;11.20;99.90;;;;;;5079382;28;20383;-74
2022/11/02 02:10:48;;;;;;;;;;;11.30;99.90;;;;;;5078503;28;20534;-74
2022/11/02 02:13:15;;;;;;;;;;;11.20;99.90;;;;;;5083086;28;19970;-73
2022/11/02 02:15:46;;;;;;;;;;;11.20;99.90;;;;;;5082488;28;19936;-73
2022/11/02 02:18:16;;;;;;;;;;;11.30;99.90;;;;;;5090387;28;20054;-74
2022/11/02 02:20:54;;;;;;;;;;;11.20;99.90;;;;;;5094375;28;20401;-74
2022/11/02 02:23:44;;;;;;;;;;;11.20;99.90;;;;;;5085639;28;19925;-73
2022/11/02 02:26:41;;;;;;;;;;;11.10;99.90;;;;;;5076479;28;20014;-74
2022/11/02 02:29:11;;;;;;;;;;;11.20;99.90;;;;;;5071438;28;19928;-74
2022/11/02 02:31:40;;;;;;;;;;;11.20;99.90;;;;;;5076936;28;20022;-74
2022/11/02 02:34:10;;;;;;;;;;;11.10;99.90;;;;;;5074560;28;19926;-74
2022/11/02 02:36:42;;;;;;;;;;;11.10;99.90;;;;;;5085566;28;19924;-74
2022/11/02 02:39:12;;;;;;;;;;;11.10;99.90;;;;;;5076991;28;20368;-74
2022/11/02 02:41:39;;;;;;;;;;;11.10;99.90;;;;;;5077438;28;19975;-74
2022/11/02 02:44:08;;;;;;;;;;;11.10;99.90;;;;;;5079781;28;19985;-74
2022/11/02 02:46:40;;;;;;;;;;;11.10;99.90;;;;;;5087935;28;21449;-74
2022/11/02 02:49:09;;;;;;;;;;;11.10;99.90;;;;;;5081495;28;19975;-74
2022/11/02 02:51:37;;;;;;;;;;;11.10;99.90;;;;;;5079055;28;19956;-74
2022/11/02 02:54:07;;;;;;;;;;;11.10;99.90;;;;;;5079953;28;19932;-74
2022/11/02 02:56:37;;;;;;;;;;;11.10;99.90;;;;;;5072021;28;19924;-74
2022/11/02 02:59:07;;;;;;;;;;;11.00;99.90;;;;;;5084276;28;19936;-75
2022/11/02 03:01:34;;;;;;;;;;;11.00;99.90;;;;;;5077322;28;20290;-73
2022/11/02 03:04:03;;;;;;;;;;;11.00;99.90;;;;;;5076036;28;19931;-74
2022/11/02 03:06:30;;;;;;;;;;;11.00;99.90;;;;;;5074391;28;19928;-74
2022/11/02 03:09:05;;;;;;;;;;;11.00;99.90;;;;;;5075811;28;19929;-74
2022/11/02 03:11:33;;;;;;;;;;;11.00;99.90;;;;;;5074131;28;20014;-74
2022/11/02 03:14:06;;;;;;;;;;;10.90;99.90;;;;;;5096922;28;20135;-74
2022/11/02 03:16:42;;;;;;;;;;;10.90;99.90;;;;;;5083728;28;20011;-74
2022/11/02 03:19:16;;;;;;;;;;;10.90;99.90;;;;;;5079118;28;20467;-74
2022/11/02 03:21:44;;;;;;;;;;;10.90;99.90;;;;;;5093648;28;19928;-74
2022/11/02 03:24:13;;;;;;;;;;;10.90;99.90;;;;;;5072808;28;20003;-74
2022/11/02 03:26:44;;;;;;;;;;;10.90;99.90;;;;;;5079055;28;19924;-74
2022/11/02 03:29:14;;;;;;;;;;;10.90;99.90;;;;;;5076675;28;19931;-74
2022/11/02 03:31:43;;;;;;;;;;;10.90;99.90;;;;;;5073777;28;19932;-74
2022/11/02 03:34:17;;;;;;;;;;;10.80;99.90;;;;;;5082005;28;20386;-74
2022/11/02 03:36:47;;;;;;;;;;;10.80;99.90;;;;;;5068999;28;19947;-74
2022/11/02 03:39:16;;;;;;;;;;;10.80;99.90;;;;;;5079650;28;19977;-74
2022/11/02 03:41:44;;;;;;;;;;;10.80;99.90;;;;;;5073598;28;19977;-74
2022/11/02 03:44:14;;;;;;;;;;;10.80;99.90;;;;;;5086543;28;19932;-74
2022/11/02 03:46:43;;;;;;;;;;;10.80;99.90;;;;;;5084194;28;19931;-74
2022/11/02 03:49:12;;;;;;;;;;;10.70;99.90;;;;;;5066000;28;19930;-74
2022/11/02 03:51:42;;;;;;;;;;;10.80;99.90;;;;;;5075908;28;19924;-74
2022/11/02 03:54:12;;;;;;;;;;;10.70;99.90;;;;;;5095952;28;20391;-74
2022/11/02 03:56:41;;;;;;;;;;;10.70;99.90;;;;;;5077207;28;19938;-74
2022/11/02 03:59:08;;;;;;;;;;;10.70;99.90;;;;;;5078519;28;19959;-74
2022/11/02 04:01:37;;;;;;;;;;;10.70;99.90;;;;;;5079544;28;19967;-74
2022/11/02 04:04:05;;;;;;;;;;;10.60;99.90;;;;;;5078474;28;21413;-74
2022/11/02 04:06:33;;;;;;;;;;;10.70;99.90;;;;;;5074380;28;19932;-74
2022/11/02 04:09:01;;;;;;;;;;;10.60;99.90;;;;;;5074081;28;20557;-74
2022/11/02 04:19:47;;;;;;;;;;;10.60;99.90;;;;;;5083204;28;19966;-74
2022/11/02 04:25:18;;;;;;;;;;;10.50;99.90;;;;;;5087726;28;19935;-73
2022/11/02 04:28:10;;;;;;;;;;;10.50;99.90;;;;;;5084157;28;19928;-74
2022/11/02 04:30:47;;;;;;;;;;;10.50;99.90;;;;;;5079561;28;20409;-74
2022/11/02 04:33:32;;;;;;;;;;;10.50;99.90;;;;;;5086940;28;20007;-74
2022/11/02 04:36:05;;;;;;;;;;;10.50;99.90;;;;;;5078574;28;19928;-74
2022/11/02 04:38:41;;;;;;;;;;;10.50;99.90;;;;;;5081600;28;19932;-74
2022/11/02 04:44:00;;;;;;;;;;;10.50;99.90;;;;;;5081852;28;19924;-74
2022/11/02 04:46:28;;;;;;;;;;;10.50;99.90;;;;;;5084695;28;19931;-74
2022/11/02 04:48:56;;;;;;;;;;;10.50;99.90;;;;;;5082963;28;19924;-74
2022/11/02 04:51:25;;;;;;;;;;;10.50;99.90;;;;;;5080155;28;20390;-74
2022/11/02 04:53:52;;;;;;;;;;;10.50;99.90;;;;;;5080517;28;19967;-74
2022/11/02 04:56:21;;;;;;;;;;;10.50;99.90;;;;;;5080254;28;19932;-74
2022/11/02 04:58:49;;;;;;;;;;;10.50;99.90;;;;;;5080691;28;19931;-74
2022/11/02 05:01:16;;;;;;;;;;;10.50;99.90;;;;;;5077681;28;20009;-74
2022/11/02 05:03:46;;;;;;;;;;;10.50;99.90;;;;;;5079425;28;19930;-74
2022/11/02 05:06:13;;;;;;;;;;;10.50;99.90;;;;;;5086184;28;19935;-74
2022/11/02 05:08:40;;;;;;;;;;;10.40;99.90;;;;;;5084123;28;19985;-74
2022/11/02 05:11:07;;;;;;;;;;;10.40;99.90;;;;;;5078551;28;19960;-74
2022/11/02 05:13:36;;;;;;;;;;;10.40;99.90;;;;;;5084093;28;20293;-73
2022/11/02 05:16:03;;;;;;;;;;;10.40;99.90;;;;;;5085144;28;20449;-74
2022/11/02 05:18:30;;;;;;;;;;;10.40;99.90;;;;;;5074585;28;19924;-74
2022/11/02 05:20:58;;;;;;;;;;;10.50;99.90;;;;;;5080767;28;19959;-74
2022/11/02 05:23:28;;;;;;;;;;;10.50;99.90;;;;;;5082545;28;19928;-74
2022/11/02 05:25:55;;;;;;;;;;;10.50;99.90;;;;;;5085465;28;20449;-74
2022/11/02 05:28:24;;;;;;;;;;;10.50;99.90;;;;;;5077289;28;20344;-74
2022/11/02 05:30:52;;;;;;;;;;;10.50;99.90;;;;;;5076273;28;19931;-74
2022/11/02 05:33:19;;;;;;;;;;;10.40;99.90;;;;;;5084503;28;20309;-74
2022/11/02 05:35:46;;;;;;;;;;;10.50;99.90;;;;;;5097101;28;20545;-74
2022/11/02 05:38:13;;;;;;;;;;;10.40;99.90;;;;;;5080149;28;19924;-74
2022/11/02 05:40:40;;;;;;;;;;;10.50;99.90;;;;;;5082017;28;19924;-74
2022/11/02 05:43:09;;;;;;;;;;;10.40;99.90;;;;;;5079188;28;19928;-74
2022/11/02 05:45:37;;;;;;;;;;;10.40;99.90;;;;;;5072416;28;19959;-74
2022/11/02 05:48:06;;;;;;;;;;;10.40;99.90;;;;;;5081850;28;19929;-74
2022/11/02 05:50:33;;;;;;;;;;;10.40;99.90;;;;;;5083171;28;19931;-74
2022/11/02 05:53:02;;;;;;;;;;;10.40;99.90;;;;;;5077475;28;20356;-73
2022/11/02 05:55:29;;;;;;;;;;;10.40;99.90;;;;;;5079037;28;19924;-72
2022/11/02 05:57:56;;;;;;;;;;;10.40;99.90;;;;;;5079118;28;20035;-73
2022/11/02 06:00:23;;;;;;;;;;;10.40;99.90;;;;;;5078327;28;20021;-73
2022/11/02 06:02:55;;;;;;;;;;;10.50;99.90;;;;;;5075558;28;19933;-73
2022/11/02 06:05:23;;;;;;;;;;;10.50;99.90;;;;;;5082451;28;19924;-73
2022/11/02 06:07:50;;;;;;;;;;;10.50;99.90;;;;;;5082746;28;19930;-73
2022/11/02 06:10:17;;;;;;;;;;;10.50;99.90;;;;;;5074800;28;20380;-73
2022/11/02 06:12:44;;;;;;;;;;;10.50;99.90;;;;;;5083698;28;20036;-73
2022/11/02 06:15:11;;;;;;;;;;;10.50;99.90;;;;;;5076093;28;19939;-73
2022/11/02 06:17:38;;;;;;;;;;;10.50;99.90;;;;;;5076030;28;19943;-73
2022/11/02 06:20:05;;;;;;;;;;;10.50;99.90;;;;;;5077680;28;19931;-72
2022/11/02 06:22:39;;;;;;;;;;;10.50;99.90;;;;;;5079292;28;19963;-73
2022/11/02 06:25:07;;;;;;;;;;;10.40;99.90;;;;;;5082061;28;19931;-73
2022/11/02 06:27:33;;;;;;;;;;;10.40;99.90;;;;;;5078128;28;19935;-73
2022/11/02 06:30:00;;;;;;;;;;;10.30;99.90;;;;;;5090715;28;20444;-73
2022/11/02 06:32:27;;;;;;;;;;;10.30;99.90;;;;;;5076391;28;19938;-73
2022/11/02 06:34:54;;;;;;;;;;;10.30;99.90;;;;;;5080451;28;19971;-73
2022/11/02 06:37:22;;;;;;;;;;;10.20;99.90;;;;;;5077975;28;20297;-74
2022/11/02 06:39:50;;;;;;;;;;;10.20;99.90;;;;;;5076992;28;19932;-73
2022/11/02 06:42:17;;;;;;;;;;;10.20;99.90;;;;;;5076517;28;19924;-73
2022/11/02 06:44:44;;;;;;;;;;;10.20;99.90;;;;;;5078753;28;20015;-73
2022/11/02 06:47:10;;;;;;;;;;;10.20;99.90;;;;;;5074645;28;19924;-73
2022/11/02 06:49:37;;;;;;;;;;;10.20;99.90;;;;;;5079705;28;19924;-73
2022/11/02 06:52:04;;;;;;;;;;;10.20;99.90;;;;;;5091359;28;19932;-73
2022/11/02 06:54:31;;;;;;;;;;;10.20;99.90;;;;;;5096809;28;19953;-73
2022/11/02 06:56:59;;;;;;;;;;;10.20;99.90;;;;;;5083806;28;19928;-73
2022/11/02 06:59:26;;;;;;;;;;;10.20;99.90;;;;;;5079092;28;19967;-73
2022/11/02 07:01:53;;;;;;;;;;;10.20;99.90;;;;;;5072419;28;19928;-73
2022/11/02 07:04:20;;;;;;;;;;;10.20;99.90;;;;;;5073178;28;19932;-73
2022/11/02 07:06:47;;;;;;;;;;;10.10;99.90;;;;;;5079122;28;19941;-73
2022/11/02 07:09:14;;;;;;;;;;;10.10;99.90;;;;;;5079966;28;19981;-73
2022/11/02 07:11:41;;;;;;;;;;;10.20;99.90;;;;;;5078630;28;19924;-72
2022/11/02 07:14:09;;;;;;;;;;;10.10;99.90;;;;;;5079606;28;21621;-73
2022/11/02 07:16:36;;;;;;;;;;;10.10;99.90;;;;;;5078006;28;19977;-73
2022/11/02 07:19:03;;;;;;;;;;;10.10;99.90;;;;;;5078534;28;19971;-73
2022/11/02 07:21:29;;;;;;;;;;;10.20;99.90;;;;;;5083964;28;19978;-73
2022/11/02 07:23:56;;;;;;;;;;;10.20;99.90;;;;;;5078487;28;19928;-73
2022/11/02 07:26:23;;;;;;;;;;;10.20;99.90;;;;;;5075004;28;20015;-73
2022/11/02 07:28:50;;;;;;;;;;;10.20;99.90;;;;;;5082198;28;19930;-73
2022/11/02 07:31:18;;;;;;;;;;;10.10;99.90;;;;;;5073502;28;20750;-73
2022/11/02 07:33:45;;;;;;;;;;;10.10;99.90;;;;;;5080091;28;20397;-73
2022/11/02 07:36:12;;;;;;;;;;;10.10;99.90;;;;;;5073530;28;19924;-73
2022/11/02 07:38:38;;;;;;;;;;;10.10;99.90;;;;;;5077808;28;19939;-73
2022/11/02 07:41:05;;;;;;;;;;;10.20;99.90;;;;;;5077160;28;19931;-73
2022/11/02 07:43:32;;;;;;;;;;;10.20;99.90;;;;;;5076215;28;19925;-72
2022/11/02 07:46:04;;;;;;;;;;;10.20;99.90;;;;;;5074113;28;19960;-74
2022/11/02 07:48:34;;;;;;;;;;;10.20;99.90;;;;;;5086070;28;19924;-73
2022/11/02 07:51:01;;;;;;;;;;;10.20;99.90;;;;;;5085058;28;19928;-73
2022/11/02 07:53:28;;;;;;;;;;;10.20;99.90;;;;;;5080536;28;19935;-73
2022/11/02 07:55:54;;;;;;;;;;;10.20;99.90;;;;;;5084813;28;19955;-74
2022/11/02 07:58:21;;;;;;;;;;;10.20;99.90;;;;;;5081492;28;20390;-73
2022/11/02 08:00:48;;;;;;;;;;;10.20;99.90;;;;;;5075532;28;20011;-73
2022/11/02 08:03:15;;;;;;;;;;;10.10;99.90;;;;;;5080388;28;20383;-73
2022/11/02 08:05:43;;;;;;;;;;;10.20;99.90;;;;;;5078281;28;20724;-73
2022/11/02 08:08:11;;;;;;;;;;;10.20;99.90;;;;;;5080906;28;20384;-73
2022/11/02 08:10:38;;;;;;;;;;;10.20;99.90;;;;;;5076332;28;20443;-73
2022/11/02 08:13:04;;;;;;;;;;;10.20;99.90;;;;;;5079333;28;20011;-73
2022/11/02 08:15:31;;;;;;;;;;;10.30;99.90;;;;;;5084710;28;19930;-73
2022/11/02 08:18:02;;;;;;;;;;;10.30;99.90;;;;;;5075863;28;19971;-73
2022/11/02 08:20:29;;;;;;;;;;;10.30;99.90;;;;;;5083259;28;19924;-73
2022/11/02 08:22:58;;;;;;;;;;;10.30;99.90;;;;;;5077473;28;20378;-73
2022/11/02 08:25:24;;;;;;;;;;;10.30;99.90;;;;;;5079069;28;20604;-73
2022/11/02 08:27:51;;;;;;;;;;;10.30;99.90;;;;;;5083235;28;19973;-73
2022/11/02 08:30:18;;;;;;;;;;;10.30;99.90;;;;;;5079919;28;19925;-73
2022/11/02 08:32:45;;;;;;;;;;;10.40;99.90;;;;;;5077846;28;19967;-73
2022/11/02 08:35:12;;;;;;;;;;;10.40;99.90;;;;;;5080953;28;19947;-73
2022/11/02 08:37:38;;;;;;;;;;;10.40;99.90;;;;;;5080516;28;19924;-73
2022/11/02 08:40:08;;;;;;;;;;;10.40;99.90;;;;;;5094417;28;19931;-73
2022/11/02 08:42:37;;;;;;;;;;;10.40;99.90;;;;;;5078943;28;20298;-73
2022/11/02 08:45:05;;;;;;;;;;;10.40;99.90;;;;;;5075980;28;19924;-73
2022/11/02 08:47:32;;;;;;;;;;;10.40;99.90;;;;;;5075744;28;19929;-73
2022/11/02 08:49:59;;;;;;;;;;;10.40;99.90;;;;;;5082503;28;19924;-73
2022/11/02 08:52:25;;;;;;;;;;;10.50;99.90;;;;;;5081175;28;20500;-73
2022/11/02 08:54:52;;;;;;;;;;;10.50;99.90;;;;;;5073477;28;19924;-73
2022/11/02 08:57:20;;;;;;;;;;;10.50;99.90;;;;;;5079888;28;20001;-73
2022/11/02 08:59:47;;;;;;;;;;;10.50;99.90;;;;;;5080658;28;20371;-73
2022/11/02 09:02:14;;;;;;;;;;;10.50;99.90;;;;;;5081102;28;20009;-73
2022/11/02 09:04:41;;;;;;;;;;;10.50;99.90;;;;;;5092199;28;19928;-73
2022/11/02 09:07:08;;;;;;;;;;;10.50;99.90;;;;;;5077819;28;19932;-73
2022/11/02 09:09:34;;;;;;;;;;;10.50;99.90;;;;;;5078119;28;19924;-73
2022/11/02 09:12:01;;;;;;;;;;;10.50;99.90;;;;;;5078536;28;20397;-73
2022/11/02 09:14:29;;;;;;;;;;;10.60;99.90;;;;;;5079007;28;19932;-73
2022/11/02 09:16:56;;;;;;;;;;;10.60;99.90;;;;;;5079959;28;19928;-73
2022/11/02 09:19:23;;;;;;;;;;;10.60;99.90;;;;;;5080010;28;19993;-73
2022/11/02 09:21:50;;;;;;;;;;;10.60;99.90;;;;;;5080859;28;20248;-73
2022/11/02 09:24:17;;;;;;;;;;;10.60;99.90;;;;;;5079672;28;19999;-73
2022/11/02 09:26:44;;;;;;;;;;;10.60;99.90;;;;;;5081304;28;20279;-73
2022/11/02 09:29:10;;;;;;;;;;;10.70;99.90;;;;;;5073240;28;19924;-73
2022/11/02 09:31:38;;;;;;;;;;;10.70;99.90;;;;;;5080377;28;19967;-73
2022/11/02 09:34:05;;;;;;;;;;;10.70;99.90;;;;;;5076612;28;19924;-72
2022/11/02 09:36:33;;;;;;;;;;;10.70;99.90;;;;;;5080029;28;19925;-73
2022/11/02 09:39:00;;;;;;;;;;;10.70;99.90;;;;;;5082541;28;19993;-73
2022/11/02 09:41:33;;;;;;;;;;;10.70;99.90;;;;;;5075869;28;19949;-73
2022/11/02 09:44:02;;;;;;;;;;;10.80;99.90;;;;;;5076185;28;20389;-72
2022/11/02 09:46:31;;;;;;;;;;;10.80;99.90;;;;;;5077930;28;20431;-73
2022/11/02 09:49:01;;;;;;;;;;;10.80;99.90;;;;;;5083508;28;19927;-73
2022/11/02 09:51:31;;;;;;;;;;;10.80;99.90;;;;;;5078724;28;20278;-72
2022/11/02 09:54:01;;;;;;;;;;;10.80;99.90;;;;;;5074109;28;20289;-73
2022/11/02 09:56:29;;;;;;;;;;;10.80;99.90;;;;;;5079317;28;19928;-74
2022/11/02 09:58:59;;;;;;;;;;;10.80;99.90;;;;;;5074512;28;20019;-73
2022/11/02 10:01:34;;;;;;;;;;;10.80;99.90;;;;;;5080727;28;19948;-73
2022/11/02 10:04:13;;;;;;;;;;;10.80;99.90;;;;;;5075480;28;19928;-73
2022/11/02 10:06:42;;;;;;;;;;;10.90;99.90;;;;;;5077243;28;19989;-73
2022/11/02 10:09:12;;;;;;;;;;;10.90;99.90;;;;;;5094554;28;19975;-73
2022/11/02 10:11:43;;;;;;;;;;;10.90;99.90;;;;;;5078303;28;19928;-73
2022/11/02 10:14:12;;;;;;;;;;;10.90;99.90;;;;;;5080387;28;20019;-73
2022/11/02 10:16:42;;;;;;;;;;;10.90;99.90;;;;;;5078072;28;20166;-73
2022/11/02 10:19:13;;;;;;;;;;;10.90;99.90;;;;;;5075297;28;20359;-73
2022/11/02 10:21:41;;;;;;;;;;;10.90;99.90;;;;;;5078646;28;19971;-73
2022/11/02 10:24:11;;;;;;;;;;;11.00;99.90;;;;;;5081169;28;19979;-73
2022/11/02 10:26:42;;;;;;;;;;;11.00;99.90;;;;;;5085612;28;19967;-73
2022/11/02 10:29:15;;;;;;;;;;;11.00;99.90;;;;;;5076946;28;19925;-73
2022/11/02 10:31:42;;;;;;;;;;;11.00;99.90;;;;;;5072956;28;19986;-72
2022/11/02 10:34:22;;;;;;;;;;;11.00;99.90;;;;;;5089792;28;19931;-73
2022/11/02 10:36:54;;;;;;;;;;;11.00;99.90;;;;;;5071460;28;19928;-72
2022/11/02 10:39:27;;;;;;;;;;;11.00;99.90;;;;;;5078251;28;19935;-73
2022/11/02 10:42:05;;;;;;;;;;;11.10;99.90;;;;;;5076132;28;20382;-73
2022/11/02 10:44:37;;;;;;;;;;;11.10;99.90;;;;;;5081220;28;20026;-73
2022/11/02 10:47:08;;;;;;;;;;;11.10;99.90;;;;;;5078620;28;19989;-73
2022/11/02 10:49:44;;;;;;;;;;;11.10;99.90;;;;;;5082342;28;20435;-73
2022/11/02 10:52:13;;;;;;;;;;;11.20;99.90;;;;;;5073941;28;20401;-73
2022/11/02 10:54:39;;;;;;;;;;;11.20;99.90;;;;;;5078665;28;20666;-73
2022/11/02 10:57:10;;;;;;;;;;;11.20;99.90;;;;;;5080704;28;20043;-73
2022/11/02 10:59:37;;;;;;;;;;;11.20;99.90;;;;;;5076043;28;19928;-73
2022/11/02 11:02:05;;;;;;;;;;;11.20;99.90;;;;;;5081229;28;19924;-73
2022/11/02 11:04:33;;;;;;;;;;;11.20;99.90;;;;;;5074726;28;19932;-73
2022/11/02 11:07:06;;;;;;;;;;;11.30;99.90;;;;;;5092543;28;19924;-73
2022/11/02 11:09:39;;;;;;;;;;;11.30;99.90;;;;;;5075951;28;19929;-73
2022/11/02 11:12:07;;;;;;;;;;;11.30;99.90;;;;;;5079017;28;19953;-74
2022/11/02 11:14:37;;;;;;;;;;;11.30;99.90;;;;;;5076278;28;19967;-73
2022/11/02 11:17:13;;;;;;;;;;;11.30;99.90;;;;;;5078699;28;19956;-73
2022/11/02 11:19:41;;;;;;;;;;;11.30;99.90;;;;;;5076206;28;20375;-73
2022/11/02 11:25:21;;;;;;;;;;;11.30;99.90;;;;;;5080070;27;19931;-74
2022/11/02 11:27:49;;;;;;;;;;;11.40;99.90;;;;;;5060972;28;19932;-74
2022/11/02 11:30:23;;;;;;;;;;;11.40;99.90;;;;;;5062721;28;19968;-75
2022/11/02 11:32:50;;;;;;;;;;;11.40;99.90;;;;;;5064010;28;19925;-74
2022/11/02 11:35:19;;;;;;;;;;;11.40;99.90;;;;;;5066820;28;19975;-74
2022/11/02 11:37:47;;;;;;;;;;;11.40;99.90;;;;;;5061071;28;20059;-73
2022/11/02 11:40:20;;;;;;;;;;;11.40;99.90;;;;;;5059332;28;19979;-74
2022/11/02 11:42:48;;;;;;;;;;;11.50;99.90;;;;;;5062709;28;19925;-75
2022/11/02 11:45:18;;;;;;;;;;;11.50;99.90;;;;;;5057440;28;20402;-74
2022/11/02 11:47:45;;;;;;;;;;;11.60;99.90;;;;;;5062992;28;19937;-74
2022/11/02 11:50:13;;;;;;;;;;;11.50;99.90;;;;;;5059223;28;20337;-73
2022/11/02 11:52:40;;;;;;;;;;;11.50;99.90;;;;;;5062391;28;19933;-74
2022/11/02 11:55:20;;;;;;;;;;;11.50;99.90;;;;;;5062939;28;20006;-74
2022/11/02 11:58:03;;;;;;;;;;;11.50;99.90;;;;;;5057144;28;20035;-75
2022/11/02 12:00:30;;;;;;;;;;;11.60;99.90;;;;;;5057605;28;20046;-74
2022/11/02 12:03:04;;;;;;;;;;;11.60;99.90;;;;;;5060351;28;19960;-74
2022/11/02 12:05:32;;;;;;;;;;;11.60;99.90;;;;;;5063697;28;19959;-74
2022/11/02 12:08:05;;;;;;;;;;;11.60;99.90;;;;;;5055030;28;19963;-74
2022/11/02 12:10:50;;;;;;;;;;;11.60;99.90;;;;;;5058790;28;19933;-75
2022/11/02 12:13:26;;;;;;;;;;;11.70;99.90;;;;;;5062932;28;20580;-74
2022/11/02 12:16:03;;;;;;;;;;;11.70;99.90;;;;;;5062648;28;20256;-74
2022/11/02 12:18:39;;;;;;;;;;;11.70;99.90;;;;;;5055227;28;20020;-74
2022/11/02 12:21:15;;;;;;;;;;;11.70;99.90;;;;;;5061144;28;20390;-75
2022/11/02 12:24:00;;;;;;;;;;;11.70;99.90;;;;;;5060146;28;20007;-75
2022/11/02 12:26:31;;;;;;;;;;;11.70;99.90;;;;;;5070201;28;19931;-74
2022/11/02 12:29:04;;;;;;;;;;;11.80;99.90;;;;;;5060035;28;19925;-75
2022/11/02 12:31:35;;;;;;;;;;;11.80;99.90;;;;;;5062871;28;20027;-74
2022/11/02 12:34:13;;;;;;;;;;;11.80;99.90;;;;;;5058838;28;20019;-74
2022/11/02 12:36:49;;;;;;;;;;;11.80;99.90;;;;;;5040903;28;20002;-74
2022/11/02 12:39:21;;;;;;;;;;;11.80;99.90;;;;;;5046638;28;20019;-74
2022/11/02 12:42:04;;;;;;;;;;;11.80;99.90;;;;;;5048216;28;19925;-74
2022/11/02 12:44:46;;;;;;;;;;;11.80;99.90;;;;;;5044567;28;19931;-74
2022/11/02 12:47:20;;;;;;;;;;;11.90;99.90;;;;;;5037353;28;20007;-74
2022/11/02 12:49:50;;;;;;;;;;;11.90;99.90;;;;;;5047292;28;19928;-74
2022/11/02 12:52:21;;;;;;;;;;;11.90;99.90;;;;;;5041059;28;19928;-74
2022/11/02 12:54:49;;;;;;;;;;;11.90;99.90;;;;;;5045822;28;20365;-75
2022/11/02 12:57:17;;;;;;;;;;;11.90;99.90;;;;;;5052321;28;19988;-75
2022/11/02 12:59:44;;;;;;;;;;;11.90;99.90;;;;;;5050954;28;19925;-74
2022/11/02 13:02:13;;;;;;;;;;;11.90;99.90;;;;;;5041337;28;20446;-75
2022/11/02 13:04:46;;;;;;;;;;;12.00;99.90;;;;;;5049114;28;19925;-73
2022/11/02 13:07:14;;;;;;;;;;;12.00;99.90;;;;;;5047101;28;20424;-75
2022/11/02 13:09:45;;;;;;;;;;;12.00;99.90;;;;;;5045516;28;20367;-74
2022/11/02 13:12:13;;;;;;;;;;;12.00;99.90;;;;;;5047704;28;20302;-75
2022/11/02 13:14:42;;;;;;;;;;;12.00;99.90;;;;;;5047381;28;19928;-74
2022/11/02 13:17:14;;;;;;;;;;;12.00;99.90;;;;;;5049571;28;19924;-74
2022/11/02 13:19:45;;;;;;;;;;;12.00;99.90;;;;;;5040452;28;20311;-74
2022/11/02 13:22:13;;;;;;;;;;;12.00;99.90;;;;;;5047741;28;20012;-74
2022/11/02 13:24:43;;;;;;;;;;;12.00;99.90;;;;;;5042159;28;19972;-74
2022/11/02 13:27:19;;;;;;;;;;;12.00;99.90;;;;;;5052059;28;19940;-74
2022/11/02 13:29:47;;;;;;;;;;;12.10;99.90;;;;;;5047506;28;19952;-74
2022/11/02 13:32:17;;;;;;;;;;;12.10;99.90;;;;;;5045420;28;19987;-74
2022/11/02 13:34:47;;;;;;;;;;;12.10;99.90;;;;;;5046323;28;20844;-74
2022/11/02 13:37:16;;;;;;;;;;;12.10;99.90;;;;;;5046560;28;19929;-74
2022/11/02 13:39:46;;;;;;;;;;;12.10;99.90;;;;;;5048066;28;20235;-74
2022/11/02 13:42:28;;;;;;;;;;;12.10;99.90;;;;;;5053094;22;20388;-80
2022/11/02 13:45:06;;;;;;;;;;;12.10;99.90;;;;;;4986414;28;19930;-78
2022/11/02 13:47:54;;;;;;;;;;;12.20;99.90;;;;;;4985804;28;20454;-78
2022/11/02 13:50:24;;;;;;;;;;;12.20;99.90;;;;;;4997431;28;20415;-77
2022/11/02 13:52:55;;;;;;;;;;;12.20;99.90;;;;;;4986267;28;20101;-77
2022/11/02 13:55:23;;;;;;;;;;;12.20;99.90;;;;;;4992540;28;19926;-77
2022/11/02 13:57:53;;;;;;;;;;;12.20;99.90;;;;;;4984510;28;19929;-80
2022/11/02 14:00:30;;;;;;;;;;;12.20;99.90;;;;;;4985564;28;19930;-78
2022/11/02 14:02:58;;;;;;;;;;;12.20;99.90;;;;;;4987260;28;19925;-81
2022/11/02 14:05:29;;;;;;;;;;;12.20;99.90;;;;;;4987770;28;19930;-81
2022/11/02 14:07:59;;;;;;;;;;;12.20;99.90;;;;;;4983727;28;20454;-79
2022/11/02 14:10:27;;;;;;;;;;;12.20;99.90;;;;;;4991930;28;20016;-79
2022/11/02 14:12:54;;;;;;;;;;;12.20;99.90;;;;;;4990400;28;20020;-77
2022/11/02 14:15:48;;;;;;;;;;;12.30;99.90;;;;;;5000853;28;19936;-77
2022/11/02 14:18:27;;;;;;;;;;;12.30;99.90;;;;;;4985012;28;20280;-77
2022/11/02 14:20:55;;;;;;;;;;;12.30;99.90;;;;;;4993375;28;20604;-78
2022/11/02 14:23:38;;;;;;;;;;;12.30;99.90;;;;;;4987611;28;19933;-80
2022/11/02 14:26:05;;;;;;;;;;;12.30;99.90;;;;;;4983182;28;19930;-77
2022/11/02 14:28:41;;;;;;;;;;;12.30;99.90;;;;;;4987803;28;19926;-77
2022/11/02 14:31:27;;;;;;;;;;;12.30;99.90;;;;;;4988968;28;20371;-78
2022/11/02 14:33:59;;;;;;;;;;;12.30;99.90;;;;;;4983012;28;19929;-80
2022/11/02 14:36:49;;;;;;;;;;;12.30;99.90;;;;;;4987950;28;19925;-77
2022/11/02 14:39:22;;;;;;;;;;;12.30;99.90;;;;;;4978806;28;20028;-81
2022/11/02 14:41:56;;;;;;;;;;;12.30;99.90;;;;;;4990452;28;19972;-78
2022/11/02 14:44:32;;;;;;;;;;;12.30;99.90;;;;;;4985714;28;19926;-79
2022/11/02 14:47:03;;;;;;;;;;;12.30;99.90;;;;;;4988657;28;19968;-78